createdAt,value
2018-04-07T00:02:00.630Z,101136.17
2018-04-07T00:04:35.357Z,101137.17
2018-04-07T00:07:10.750Z,101135.27
2018-04-07T00:09:45.490Z,101132.71
2018-04-07T00:12:20.712Z,101126.38
2018-04-07T00:14:55.638Z,101116.45
2018-04-07T00:17:30.307Z,101114.94
2018-04-07T00:20:04.869Z,101115.63
2018-04-07T00:22:40.198Z,101116.84
2018-04-07T00:25:14.492Z,101121.05
2018-04-07T00:27:49.704Z,101133.06
2018-04-07T00:30:25.005Z,101138.27
2018-04-07T00:33:00.015Z,101136.98
2018-04-07T00:35:34.863Z,101134.74
2018-04-07T00:38:10.914Z,101131.84
2018-04-07T00:40:46.072Z,101132.09
2018-04-07T00:43:20.863Z,101126.33
2018-04-07T00:45:55.982Z,101126.61
2018-04-07T00:48:30.603Z,101122.36
2018-04-07T00:51:05.622Z,101115.42
2018-04-07T00:53:40.383Z,101130.12
2018-04-07T00:56:15.546Z,101118.80
2018-04-07T00:58:50.618Z,101120.09
2018-04-07T01:01:25.906Z,101111.43
2018-04-07T01:04:00.720Z,101113.20
2018-04-07T01:06:35.792Z,101106.66
2018-04-07T01:09:11.011Z,101101.47
2018-04-07T01:11:45.906Z,101103.73
2018-04-07T01:14:20.472Z,101093.63
2018-04-07T01:16:55.678Z,101088.19
2018-04-07T01:19:30.569Z,101093.12
2018-04-07T01:22:05.387Z,101091.88
2018-04-07T01:24:40.670Z,101086.47
2018-04-07T01:27:15.868Z,101077.28
2018-04-07T01:29:50.700Z,101085.83
2018-04-07T01:32:25.874Z,101083.83
2018-04-07T01:35:00.674Z,101079.06
2018-04-07T01:37:35.591Z,101081.30
2018-04-07T01:40:10.834Z,101080.74
2018-04-07T01:42:45.716Z,101076.95
2018-04-07T01:45:20.300Z,101076.48
2018-04-07T01:47:55.733Z,101076.45
2018-04-07T01:50:30.809Z,101074.36
2018-04-07T01:53:05.789Z,101074.82
2018-04-07T01:55:40.698Z,101074.70
2018-04-07T01:58:15.303Z,101077.84
2018-04-07T02:00:50.788Z,101081.86
2018-04-07T02:03:25.277Z,101080.77
2018-04-07T02:06:00.538Z,101085.59
2018-04-07T02:08:35.247Z,101083.80
2018-04-07T02:11:11.087Z,101078.70
2018-04-07T02:13:46.761Z,101078.21
2018-04-07T02:16:21.891Z,101083.33
2018-04-07T02:18:56.837Z,101073.57
2018-04-07T02:21:31.720Z,101065.49
2018-04-07T02:24:07.238Z,101073.31
2018-04-07T02:26:42.659Z,101076.88
2018-04-07T02:29:17.855Z,101078.75
2018-04-07T02:31:52.850Z,101082.52
2018-04-07T02:34:27.692Z,101080.39
2018-04-07T02:37:02.950Z,101082.43
2018-04-07T02:39:37.886Z,101077.91
2018-04-07T02:42:13.158Z,101081.42
2018-04-07T02:44:48.299Z,101073.20
2018-04-07T02:47:23.196Z,101072.70
2018-04-07T02:49:58.319Z,101069.67
2018-04-07T02:52:33.822Z,101068.63
2018-04-07T02:55:08.498Z,101061.77
2018-04-07T02:57:43.299Z,101067.55
2018-04-07T03:00:18.889Z,101062.06
2018-04-07T03:02:54.319Z,101060.71
2018-04-07T03:05:29.383Z,101058.97
2018-04-07T03:08:03.872Z,101062.62
2018-04-07T03:10:38.910Z,101063.57
2018-04-07T03:13:13.595Z,101060.62
2018-04-07T03:15:49.019Z,101056.70
2018-04-07T03:18:23.970Z,101054.77
2018-04-07T03:20:58.938Z,101045.38
2018-04-07T03:23:33.899Z,101040.85
2018-04-07T03:26:08.790Z,101040.29
2018-04-07T03:28:43.919Z,101037.90
2018-04-07T03:31:19.312Z,101035.94
2018-04-07T03:33:54.076Z,101035.36
2018-04-07T03:36:29.154Z,101040.69
2018-04-07T03:39:03.275Z,101052.10
2018-04-07T03:41:37.969Z,101051.26
2018-04-07T03:44:13.304Z,101046.41
2018-04-07T03:46:48.066Z,101052.55
2018-04-07T03:49:23.134Z,101046.16
2018-04-07T03:51:58.213Z,101052.50
2018-04-07T03:54:33.286Z,101047.35
2018-04-07T03:57:08.220Z,101045.38
2018-04-07T03:59:43.119Z,101040.85
2018-04-07T04:02:18.377Z,101045.10
2018-04-07T04:04:54.254Z,101039.52
2018-04-07T04:07:29.299Z,101040.76
2018-04-07T04:10:03.693Z,101042.56
2018-04-07T04:12:39.259Z,101034.98
2018-04-07T04:15:14.150Z,101034.59
2018-04-07T04:17:49.085Z,101042.16
2018-04-07T04:20:25.001Z,101035.48
2018-04-07T04:22:59.480Z,101025.59
2018-04-07T04:25:34.501Z,101017.23
2018-04-07T04:28:09.314Z,101017.58
2018-04-07T04:30:44.194Z,101006.96
2018-04-07T04:33:19.142Z,100999.37
2018-04-07T04:35:54.149Z,101003.64
2018-04-07T04:38:29.121Z,100996.63
2018-04-07T04:41:03.758Z,100990.79
2018-04-07T04:43:38.445Z,100990.53
2018-04-07T04:46:13.581Z,100982.77
2018-04-07T04:48:48.716Z,100987.81
2018-04-07T04:51:24.349Z,100985.84
2018-04-07T04:53:59.266Z,100981.06
2018-04-07T04:56:33.705Z,100988.09
2018-04-07T04:59:08.674Z,100994.78
2018-04-07T05:01:43.782Z,100994.94
2018-04-07T05:04:19.502Z,100989.53
2018-04-07T05:06:54.394Z,100995.28
2018-04-07T05:09:29.369Z,100989.68
2018-04-07T05:12:04.351Z,100989.13
2018-04-07T05:14:39.240Z,100993.44
2018-04-07T05:17:13.826Z,100986.64
2018-04-07T05:19:48.954Z,100985.07
2018-04-07T05:22:24.612Z,100982.39
2018-04-07T05:24:59.639Z,100980.34
2018-04-07T05:27:34.524Z,100980.03
2018-04-07T05:30:10.962Z,100972.24
2018-04-07T05:32:46.297Z,100973.58
2018-04-07T05:35:21.498Z,100968.13
2018-04-07T05:37:58.223Z,100959.62
2018-04-07T05:40:33.362Z,100960.06
2018-04-07T05:43:07.739Z,100953.78
2018-04-07T05:45:42.521Z,100950.62
2018-04-07T05:48:17.563Z,100955.84
2018-04-07T05:50:52.450Z,100955.55
2018-04-07T05:53:26.955Z,100951.62
2018-04-07T05:56:02.266Z,100950.98
2018-04-07T05:58:37.353Z,100955.91
2018-04-07T06:01:12.084Z,100955.70
2018-04-07T06:03:46.894Z,100954.60
2018-04-07T06:06:22.012Z,100954.89
2018-04-07T06:08:57.461Z,100942.50
2018-04-07T06:11:32.050Z,100936.83
2018-04-07T06:14:07.506Z,100944.05
2018-04-07T06:16:42.294Z,100945.37
2018-04-07T06:19:17.659Z,100936.35
2018-04-07T06:21:52.034Z,100945.83
2018-04-07T06:24:26.983Z,100939.25
2018-04-07T06:27:02.100Z,100936.03
2018-04-07T06:29:36.885Z,100933.22
2018-04-07T06:32:11.952Z,100931.70
2018-04-07T06:34:46.762Z,100935.51
2018-04-07T06:37:21.734Z,100929.34
2018-04-07T06:39:56.919Z,100913.67
2018-04-07T06:42:32.017Z,100920.00
2018-04-07T06:45:06.897Z,100908.98
2018-04-07T06:47:41.934Z,100905.07
2018-04-07T06:50:16.866Z,100904.91
2018-04-07T06:52:51.850Z,100901.14
2018-04-07T06:55:27.258Z,100903.70
2018-04-07T06:58:01.725Z,100902.91
2018-04-07T07:00:36.756Z,100911.05
2018-04-07T07:03:12.061Z,100912.53
2018-04-07T07:05:46.791Z,100908.14
2018-04-07T07:08:21.986Z,100912.52
2018-04-07T07:10:56.939Z,100915.09
2018-04-07T07:13:31.828Z,100906.02
2018-04-07T07:16:07.242Z,100908.80
2018-04-07T07:18:41.947Z,100908.96
2018-04-07T07:21:16.846Z,100911.16
2018-04-07T07:23:52.050Z,100908.55
2018-04-07T07:26:26.591Z,100913.00
2018-04-07T07:29:00.975Z,100908.20
2018-04-07T07:31:36.508Z,100910.34
2018-04-07T07:34:12.039Z,100901.80
2018-04-07T07:36:47.562Z,100894.41
2018-04-07T07:39:22.737Z,100884.00
2018-04-07T07:41:57.880Z,100880.06
2018-04-07T07:44:32.774Z,100888.71
2018-04-07T07:47:07.878Z,100883.31
2018-04-07T07:49:42.671Z,100889.66
2018-04-07T07:52:17.961Z,100880.83
2018-04-07T07:54:52.953Z,100874.36
2018-04-07T07:57:28.028Z,100868.44
2018-04-07T08:00:03.490Z,100867.83
2018-04-07T08:02:38.083Z,100854.51
2018-04-07T08:05:13.361Z,100850.67
2018-04-07T08:07:47.806Z,100862.74
2018-04-07T08:10:23.111Z,100868.45
2018-04-07T08:12:57.763Z,100866.40
2018-04-07T08:15:33.055Z,100865.70
2018-04-07T08:18:07.850Z,100870.53
2018-04-07T08:20:43.006Z,100866.80
2018-04-07T08:23:18.014Z,100856.84
2018-04-07T08:25:53.096Z,100856.48
2018-04-07T08:28:27.878Z,100857.84
2018-04-07T08:31:03.058Z,100854.26
2018-04-07T08:33:38.042Z,100855.47
2018-04-07T08:36:14.733Z,100860.17
2018-04-07T08:38:49.102Z,100865.80
2018-04-07T08:41:24.122Z,100870.73
2018-04-07T08:43:59.162Z,100878.42
2018-04-07T08:46:33.870Z,100870.67
2018-04-07T08:49:08.454Z,100865.42
2018-04-07T08:51:43.147Z,100856.31
2018-04-07T08:54:18.086Z,100853.53
2018-04-07T08:56:53.743Z,100857.27
2018-04-07T08:59:28.770Z,100856.31
2018-04-07T09:02:03.910Z,100853.73
2018-04-07T09:04:38.887Z,100850.49
2018-04-07T09:07:14.202Z,100845.50
2018-04-07T09:09:49.051Z,100850.91
2018-04-07T09:12:23.157Z,100854.19
2018-04-07T09:14:58.469Z,100849.59
2018-04-07T09:17:33.260Z,100842.19
2018-04-07T09:20:08.214Z,100844.46
2018-04-07T09:22:43.389Z,100841.83
2018-04-07T09:25:18.294Z,100841.83
2018-04-07T09:27:53.392Z,100838.79
2018-04-07T09:30:28.290Z,100832.55
2018-04-07T09:33:03.183Z,100839.71
2018-04-07T09:35:38.099Z,100833.76
2018-04-07T09:38:12.913Z,100833.66
2018-04-07T09:40:48.184Z,100832.92
2018-04-07T09:43:23.226Z,100833.17
2018-04-07T09:45:58.083Z,100830.90
2018-04-07T09:48:32.770Z,100832.26
2018-04-07T09:51:07.929Z,100825.70
2018-04-07T09:53:42.978Z,100831.88
2018-04-07T09:56:18.160Z,100830.00
2018-04-07T09:58:52.990Z,100825.70
2018-04-07T10:01:29.503Z,100827.86
2018-04-07T10:04:04.290Z,100818.92
2018-04-07T10:06:39.178Z,100829.44
2018-04-07T10:09:14.017Z,100825.17
2018-04-07T10:11:48.435Z,100810.53
2018-04-07T10:14:23.546Z,100818.08
2018-04-07T10:16:58.941Z,100823.11
2018-04-07T10:19:34.023Z,100812.70
2018-04-07T10:22:08.551Z,100817.08
2018-04-07T10:24:43.405Z,100815.94
2018-04-07T10:27:18.398Z,100804.62
2018-04-07T10:29:53.162Z,100811.23
2018-04-07T10:32:28.358Z,100811.95
2018-04-07T10:35:03.094Z,100803.30
2018-04-07T10:37:38.198Z,100795.16
2018-04-07T10:40:12.802Z,100796.93
2018-04-07T10:42:48.215Z,100797.55
2018-04-07T10:45:23.304Z,100794.65
2018-04-07T10:47:58.187Z,100783.23
2018-04-07T10:50:33.227Z,100778.09
2018-04-07T10:53:08.153Z,100777.80
2018-04-07T10:55:43.125Z,100780.53
2018-04-07T10:58:18.459Z,100772.92
2018-04-07T11:00:53.361Z,100778.63
2018-04-07T11:03:28.345Z,100775.69
2018-04-07T11:06:03.385Z,100768.25
2018-04-07T11:08:38.242Z,100765.11
2018-04-07T11:11:13.610Z,100766.13
2018-04-07T11:13:48.401Z,100758.69
2018-04-07T11:16:23.445Z,100759.92
2018-04-07T11:18:58.307Z,100764.75
2018-04-07T11:21:33.299Z,100759.80
2018-04-07T11:24:08.296Z,100757.58
2018-04-07T11:26:43.266Z,100758.14
2018-04-07T11:29:17.843Z,100749.09
2018-04-07T11:31:53.265Z,100747.55
2018-04-07T11:34:28.426Z,100736.13
2018-04-07T11:37:03.425Z,100738.47
2018-04-07T11:39:38.343Z,100739.55
2018-04-07T11:42:13.323Z,100731.55
2018-04-07T11:44:48.444Z,100724.70
2018-04-07T11:47:23.795Z,100717.97
2018-04-07T11:49:58.807Z,100721.27
2018-04-07T11:52:33.490Z,100718.73
2018-04-07T11:55:08.758Z,100708.04
2018-04-07T11:57:43.435Z,100711.73
2018-04-07T12:00:18.464Z,100710.64
2018-04-07T12:02:53.568Z,100701.45
2018-04-07T12:05:28.360Z,100701.00
2018-04-07T12:08:02.751Z,100694.63
2018-04-07T12:10:37.817Z,100692.76
2018-04-07T12:13:12.707Z,100704.42
2018-04-07T12:15:47.523Z,100687.73
2018-04-07T12:18:22.443Z,100687.63
2018-04-07T12:20:57.418Z,100688.87
2018-04-07T12:23:32.406Z,100690.16
2018-04-07T12:26:07.379Z,100682.89
2018-04-07T12:28:42.390Z,100682.00
2018-04-07T12:31:17.865Z,100678.95
2018-04-07T12:33:52.971Z,100677.03
2018-04-07T12:36:28.654Z,100684.34
2018-04-07T12:39:03.007Z,100688.55
2018-04-07T12:41:38.040Z,100687.09
2018-04-07T12:44:14.271Z,100681.12
2018-04-07T12:46:49.352Z,100683.62
2018-04-07T12:49:24.236Z,100677.52
2018-04-07T12:51:58.932Z,100670.89
2018-04-07T12:54:33.816Z,100677.00
2018-04-07T12:57:10.467Z,100671.74
2018-04-07T12:59:44.863Z,100667.67
2018-04-07T13:02:19.858Z,100661.81
2018-04-07T13:04:55.517Z,100665.05
2018-04-07T13:07:30.510Z,100661.55
2018-04-07T13:10:05.418Z,100664.81
2018-04-07T13:12:40.932Z,100667.06
2018-04-07T13:15:15.799Z,100657.67
2018-04-07T13:17:50.547Z,100666.33
2018-04-07T13:20:25.986Z,100646.20
2018-04-07T13:23:00.641Z,100656.41
2018-04-07T13:25:35.722Z,100652.13
2018-04-07T13:28:10.528Z,100663.06
2018-04-07T13:30:45.410Z,100653.36
2018-04-07T13:33:20.644Z,100647.29
2018-04-07T13:35:55.819Z,100635.25
2018-04-07T13:38:30.898Z,100627.83
2018-04-07T13:41:06.471Z,100630.63
2018-04-07T13:43:41.560Z,100632.61
2018-04-07T13:46:16.812Z,100634.42
2018-04-07T13:48:51.699Z,100627.84
2018-04-07T13:51:26.574Z,100635.74
2018-04-07T13:54:01.658Z,100624.39
2018-04-07T13:56:36.139Z,100619.31
2018-04-07T13:59:11.224Z,100615.38
2018-04-07T14:01:46.136Z,100617.85
2018-04-07T14:04:21.723Z,100611.19
2018-04-07T14:06:57.060Z,100608.66
2018-04-07T14:09:32.078Z,100600.97
2018-04-07T14:12:07.291Z,100602.59
2018-04-07T14:14:42.270Z,100599.51
2018-04-07T14:17:17.158Z,100605.39
2018-04-07T14:19:52.653Z,100597.94
2018-04-07T14:22:27.974Z,100595.12
2018-04-07T14:25:03.326Z,100582.05
2018-04-07T14:27:38.224Z,100578.73
2018-04-07T14:30:13.723Z,100587.45
2018-04-07T14:32:48.810Z,100580.66
2018-04-07T14:35:24.210Z,100567.77
2018-04-07T14:37:58.788Z,100558.14
2018-04-07T14:40:33.893Z,100556.76
2018-04-07T14:43:08.859Z,100558.56
2018-04-07T14:45:43.816Z,100554.73
2018-04-07T14:48:19.018Z,100550.30
2018-04-07T14:50:53.814Z,100544.61
2018-04-07T14:53:28.954Z,100541.20
2018-04-07T14:56:03.790Z,100538.99
2018-04-07T14:58:38.969Z,100534.77
2018-04-07T15:01:14.162Z,100540.24
2018-04-07T15:03:48.910Z,100533.69
2018-04-07T15:06:23.983Z,100531.80
2018-04-07T15:08:58.834Z,100528.72
2018-04-07T15:11:34.127Z,100523.30
2018-04-07T15:14:09.166Z,100521.92
2018-04-07T15:16:44.418Z,100517.71
2018-04-07T15:19:19.878Z,100516.30
2018-04-07T15:21:54.867Z,100521.72
2018-04-07T15:24:29.925Z,100516.46
2018-04-07T15:27:05.294Z,100517.89
2018-04-07T15:29:39.974Z,100524.57
2018-04-07T15:32:15.187Z,100513.86
2018-04-07T15:34:49.979Z,100510.94
2018-04-07T15:37:25.281Z,100504.55
2018-04-07T15:40:00.095Z,100501.73
2018-04-07T15:42:35.366Z,100502.13
2018-04-07T15:45:10.943Z,100497.14
2018-04-07T15:47:45.911Z,100501.06
2018-04-07T15:50:20.505Z,100497.80
2018-04-07T15:52:55.485Z,100495.56
2018-04-07T15:55:30.631Z,100499.59
2018-04-07T15:58:06.587Z,100489.74
2018-04-07T16:00:41.642Z,100488.03
2018-04-07T16:03:16.449Z,100491.84
2018-04-07T16:05:51.141Z,100487.06
2018-04-07T16:08:26.809Z,100488.56
2018-04-07T16:11:01.664Z,100484.02
2018-04-07T16:13:36.475Z,100493.77
2018-04-07T16:16:11.386Z,100491.97
2018-04-07T16:18:46.583Z,100478.84
2018-04-07T16:21:21.241Z,100487.84
2018-04-07T16:23:55.638Z,100474.59
2018-04-07T16:26:30.527Z,100466.45
2018-04-07T16:29:05.090Z,100466.23
2018-04-07T16:31:40.092Z,100468.91
2018-04-07T16:34:14.788Z,100468.79
2018-04-07T16:36:49.675Z,100467.52
2018-04-07T16:39:24.922Z,100475.35
2018-04-07T16:41:59.683Z,100479.16
2018-04-07T16:44:35.126Z,100462.32
2018-04-07T16:47:10.090Z,100472.48
2018-04-07T16:49:45.073Z,100470.69
2018-04-07T16:52:20.420Z,100461.90
2018-04-07T16:54:55.586Z,100465.80
2018-04-07T16:57:30.270Z,100466.75
2018-04-07T17:00:04.429Z,100471.31
2018-04-07T17:02:40.033Z,100468.43
2018-04-07T17:05:14.622Z,100466.95
2018-04-07T17:07:49.402Z,100465.59
2018-04-07T17:10:24.563Z,100470.77
2018-04-07T17:12:59.356Z,100466.34
2018-04-07T17:15:34.391Z,100471.09
2018-04-07T17:18:09.315Z,100471.80
2018-04-07T17:20:44.067Z,100470.22
2018-04-07T17:23:19.198Z,100465.47
2018-04-07T17:25:53.704Z,100467.23
2018-04-07T17:28:29.294Z,100472.70
2018-04-07T17:31:04.567Z,100467.70
2018-04-07T17:33:39.460Z,100469.07
2018-04-07T17:36:14.226Z,100467.84
2018-04-07T17:38:49.147Z,100461.57
2018-04-07T17:41:23.520Z,100454.58
2018-04-07T17:43:58.547Z,100460.95
2018-04-07T17:46:33.571Z,100455.84
2018-04-07T17:49:08.426Z,100465.27
2018-04-07T17:51:43.383Z,100464.94
2018-04-07T17:54:18.541Z,100462.35
2018-04-07T17:56:53.568Z,100463.27
2018-04-07T17:59:28.581Z,100470.63
2018-04-07T18:02:03.541Z,100464.23
2018-04-07T18:04:38.528Z,100460.58
2018-04-07T18:07:13.723Z,100456.19
2018-04-07T18:09:48.804Z,100466.27
2018-04-07T18:12:23.829Z,100465.26
2018-04-07T18:14:58.857Z,100467.55
2018-04-07T18:17:34.687Z,100471.31
2018-04-07T18:20:09.370Z,100468.67
2018-04-07T18:22:44.341Z,100474.67
2018-04-07T18:25:19.614Z,100485.09
2018-04-07T18:27:54.476Z,100489.86
2018-04-07T18:30:29.589Z,100485.64
2018-04-07T18:33:04.438Z,100494.00
2018-04-07T18:35:39.425Z,100492.10
2018-04-07T18:38:14.287Z,100498.09
2018-04-07T18:40:49.266Z,100497.00
2018-04-07T18:43:24.667Z,100495.02
2018-04-07T18:45:59.532Z,100503.56
2018-04-07T18:48:34.195Z,100504.11
2018-04-07T18:51:08.562Z,100507.36
2018-04-07T18:53:43.415Z,100511.02
2018-04-07T18:56:18.706Z,100506.66
2018-04-07T18:58:53.129Z,100506.48
2018-04-07T19:01:28.477Z,100507.01
2018-04-07T19:04:03.606Z,100521.92
2018-04-07T19:06:38.672Z,100515.50
2018-04-07T19:09:13.402Z,100516.74
2018-04-07T19:11:48.311Z,100511.34
2018-04-07T19:14:23.474Z,100515.44
2018-04-07T19:16:58.647Z,100519.69
2018-04-07T19:19:33.672Z,100523.91
2018-04-07T19:22:08.640Z,100519.63
2018-04-07T19:24:43.390Z,100518.61
2018-04-07T19:27:18.876Z,100522.95
2018-04-07T19:29:53.595Z,100527.84
2018-04-07T19:32:28.568Z,100524.34
2018-04-07T19:35:03.557Z,100524.96
2018-04-07T19:37:38.646Z,100528.13
2018-04-07T19:40:13.947Z,100530.02
2018-04-07T19:42:48.613Z,100524.86
2018-04-07T19:45:23.194Z,100527.44
2018-04-07T19:47:59.785Z,100533.36
2018-04-07T19:50:34.833Z,100526.33
2018-04-07T19:53:09.846Z,100526.52
2018-04-07T19:55:44.941Z,100533.36
2018-04-07T19:58:19.857Z,100530.58
2018-04-07T20:00:54.771Z,100533.06
2018-04-07T20:03:29.977Z,100530.25
2018-04-07T20:06:04.699Z,100537.66
2018-04-07T20:08:39.685Z,100543.13
2018-04-07T20:11:15.183Z,100537.52
2018-04-07T20:13:50.132Z,100540.47
2018-04-07T20:16:25.456Z,100536.10
2018-04-07T20:19:00.244Z,100536.73
2018-04-07T20:21:35.381Z,100539.77
2018-04-07T20:24:10.858Z,100536.81
2018-04-07T20:26:45.706Z,100535.69
2018-04-07T20:29:20.798Z,100537.10
2018-04-07T20:31:56.168Z,100535.61
2018-04-07T20:34:31.059Z,100530.54
2018-04-07T20:37:05.122Z,100534.53
2018-04-07T20:39:40.223Z,100536.56
2018-04-07T20:42:26.134Z,100539.86
2018-04-07T20:45:01.054Z,100541.22
2018-04-07T20:47:35.701Z,100540.12
2018-04-07T20:50:10.185Z,100535.02
2018-04-07T20:52:45.297Z,100530.86
2018-04-07T20:55:20.044Z,100532.39
2018-04-07T20:57:54.919Z,100527.61
2018-04-07T21:00:30.132Z,100524.14
2018-04-07T21:03:05.111Z,100526.77
2018-04-07T21:05:39.910Z,100520.81
2018-04-07T21:08:14.858Z,100528.28
2018-04-07T21:10:49.577Z,100526.86
2018-04-07T21:13:24.838Z,100527.61
2018-04-07T21:15:59.806Z,100521.94
2018-04-07T21:18:34.447Z,100523.79
2018-04-07T21:21:09.948Z,100517.34
2018-04-07T21:23:45.342Z,100519.80
2018-04-07T21:26:20.337Z,100516.61
2018-04-07T21:28:55.074Z,100523.98
2018-04-07T21:31:30.516Z,100516.92
2018-04-07T21:34:05.510Z,100501.28
2018-04-07T21:36:40.431Z,100505.60
2018-04-07T21:39:15.003Z,100517.97
2018-04-07T21:41:49.948Z,100515.08
2018-04-07T21:44:25.015Z,100514.59
2018-04-07T21:46:59.938Z,100520.42
2018-04-07T21:49:34.935Z,100519.85
2018-04-07T21:52:09.752Z,100518.27
2018-04-07T21:54:45.017Z,100517.39
2018-04-07T21:57:19.911Z,100512.69
2018-04-07T21:59:54.424Z,100518.57
2018-04-07T22:02:29.221Z,100512.30
2018-04-07T22:05:03.642Z,100518.30
2018-04-07T22:07:38.452Z,100510.19
2018-04-07T22:10:13.799Z,100516.06
2018-04-07T22:12:48.042Z,100517.69
2018-04-07T22:15:23.483Z,100512.06
2018-04-07T22:17:58.082Z,100513.30
2018-04-07T22:20:32.409Z,100509.92
2018-04-07T22:23:07.002Z,100513.09
2018-04-07T22:25:41.729Z,100503.62
2018-04-07T22:28:16.704Z,100509.36
2018-04-07T22:30:51.290Z,100505.94
2018-04-07T22:33:26.341Z,100507.14
2018-04-07T22:36:01.711Z,100504.66
2018-04-07T22:38:36.791Z,100499.33
2018-04-07T22:41:12.107Z,100503.55
2018-04-07T22:43:46.514Z,100498.27
2018-04-07T22:46:21.716Z,100501.42
2018-04-07T22:48:55.860Z,100499.84
2018-04-07T22:51:30.465Z,100499.91
2018-04-07T22:54:05.165Z,100499.13
2018-04-07T22:56:40.378Z,100500.44
2018-04-07T22:59:15.947Z,100501.01
2018-04-07T23:01:51.035Z,100495.91
2018-04-07T23:04:25.623Z,100495.74
2018-04-07T23:07:01.102Z,100510.45
2018-04-07T23:09:36.175Z,100504.50
2018-04-07T23:12:10.931Z,100496.66
2018-04-07T23:14:46.143Z,100497.16
2018-04-07T23:17:21.370Z,100500.63
2018-04-07T23:19:56.181Z,100499.53
2018-04-07T23:22:31.425Z,100503.76
2018-04-07T23:25:06.095Z,100498.95
2018-04-07T23:27:41.238Z,100496.48
2018-04-07T23:30:16.211Z,100499.81
2018-04-07T23:32:50.967Z,100493.06
2018-04-07T23:35:26.242Z,100494.43
2018-04-07T23:38:01.171Z,100496.20
2018-04-07T23:40:36.226Z,100498.00
2018-04-07T23:43:11.453Z,100495.77
2018-04-07T23:45:46.788Z,100480.48
2018-04-07T23:48:21.960Z,100487.26
2018-04-07T23:50:57.127Z,100487.09
2018-04-07T23:53:32.586Z,100482.92
2018-04-07T23:56:08.155Z,100488.05
2018-04-07T23:58:43.439Z,100479.91
